• Join FlightAware (Why Join?)
  • Login
  • US Flag 
07:24PM EST


 

Airport Tracker/Info


-or-


 

Live Flight TrackerFlight Track Log ✈ FLG3757 ✈ 06-Jul-2014 ✈ KBGM - KDTW

Flight Track Log - Related Links

Times and Time Zones

All times are in EDT time to prevent confusion due to time zone crossing. See the FLG3757 flight status page for this flight to view local times or setup timezone preferences in your user account.

Time Position Orientation Groundspeed Altitude Reporting Facility
EDT Latitude Longitude Course Direction KTS MPH feet Rate Location/Type
06:18AM 42.1578 -75.9572 294° West 172 198 3,000  Level New York Center
06:19AM 42.1283 -75.9800 210° Southwest 185 213 4,500 1,980 Climbing Cleveland Center
06:20AM 42.1464 -76.0656 286° West 255 293 6,700 2,340 Climbing Cleveland Center
06:21AM 42.1756 -76.1558 294° West 257 296 9,300 2,340 Climbing Cleveland Center
06:22AM 42.2044 -76.2486 293° West 268 308 11,500 1,800 Climbing Cleveland Center
06:23AM 42.3611 -76.5498 294° West  Level FlightAware Approximate
06:23AM 42.2369 -76.3561 292° West 305 351 13,000  Level Cleveland Center
06:24AM 42.2717 -76.4683 293° West 323 372 14,500 1,440 Climbing Cleveland Center
06:25AM 42.3100 -76.5892 293° West 342 394 16,000 1,380 Climbing Cleveland Center
06:26AM 42.3489 -76.7117 293° West 353 406 17,300 1,020 Climbing Cleveland Center
06:27AM 42.3875 -76.8381 293° West 363 418 18,100 960 Climbing Cleveland Center
06:28AM 42.4356 -76.9933 293° West 372 428 19,300 1,080 Climbing Cleveland Center
06:29AM 42.4758 -77.1247 293° West 375 432 20,300 960 Climbing Cleveland Center
06:30AM 42.5167 -77.2589 292° West 382 440 21,300 900 Climbing Cleveland Center
06:31AM 42.5575 -77.3925 293° West 383 441 22,200 840 Climbing Cleveland Center
06:32AM 42.6000 -77.5328 292° West 388 447 23,000 780 Climbing Cleveland Center
06:33AM 42.6128 -77.6825 277° West 402 463 23,800 720 Climbing Cleveland Center
06:34AM 42.6175 -77.8122 273° West 405 466 24,500 720 Climbing Cleveland Center
06:35AM 42.6256 -77.9950 273° West 404 465 25,300 660 Climbing Cleveland Center
06:36AM 42.6317 -78.1489 273° West 405 466 25,900 540 Climbing Cleveland Center
06:37AM 42.6369 -78.3061 273° West 413 475 26,500 540 Climbing Cleveland Center
06:38AM 42.6422 -78.4619 273° West 413 475 27,100 540 Climbing Cleveland Center
06:39AM 42.6492 -78.6200 273° West 419 482 27,600 420 Climbing Cleveland Center
06:40AM 42.6544 -78.7775 273° West 420 483 28,000 180 Climbing Cleveland Center
06:41AM 42.6597 -78.9406 273° West 432 497 28,000  Level Cleveland Center
06:42AM 42.6644 -79.1050 272° West 435 501 28,000  Level Cleveland Center
06:43AM 42.6689 -79.2717 272° West 440 506 28,000  Level Cleveland Center
06:44AM 42.6742 -79.4411 272° West 450 518 28,000  Level Cleveland Center
06:45AM 42.6792 -79.6106 272° West 450 518 28,000  Level Cleveland Center
06:46AM 42.6833 -79.7803 272° West 450 518 28,000  Level Cleveland Center
06:47AM 42.6875 -79.9497 272° West 450 518 28,000  Level Cleveland Center
06:48AM 42.6903 -80.1486 271° West 449 517 28,000  Level Cleveland Center
06:49AM 42.6942 -80.3192 272° West 449 517 28,000  Level Cleveland Center
06:50AM 42.6981 -80.4897 272° West 449 517 28,000  Level Cleveland Center
06:51AM 42.7011 -80.6600 271° West 450 518 28,000  Level Cleveland Center
06:52AM 42.7056 -80.8336 272° West 452 520 28,000 -300 Level Cleveland Center
06:53AM 42.6928 -81.0053 264° West 453 521 27,500 -1,020 Descending Cleveland Center
06:54AM 42.6731 -81.1789 261° West 460 529 26,000 -1,560 Descending Cleveland Center
06:55AM 42.6519 -81.3542 261° West 465 535 24,400 -1,680 Descending Cleveland Center
06:56AM 42.6331 -81.5253 262° West 459 528 22,700 -1,680 Descending Cleveland Center
06:57AM 42.6133 -81.6878 261° West 438 504 21,100 -1,680 Descending Cleveland Center
06:58AM 42.5933 -81.8553 261° West 421 484 19,400 -1,680 Descending Cleveland Center
06:59AM 42.5750 -82.0083 261° West 416 479 17,800 -1,560 Descending Cleveland Center
07:00AM 42.5558 -82.1572 260° West 408 470 16,300 -1,500 Descending Cleveland Center
07:01AM 42.5481 -82.2064 258° West 402 463 15,800 -1,560 Descending Cleveland Center
07:01AM 42.5381 -82.3042 262° West 401 461 14,700 -1,800 Descending Cleveland Center
07:02AM 42.5292 -82.3625 258° West 393 452 14,000 -1,620 Descending Cleveland Center
07:02AM 42.5206 -82.4478 262° West 394 453 13,100 -1,620 Descending Cleveland Center
07:03AM 42.5128 -82.5075 260° West 386 444 12,400 -1,500 Descending Cleveland Center
07:03AM 42.4964 -82.5875 254° West 384 442 11,600 -1,440 Descending Cleveland Center
07:04AM 42.4767 -82.6331 240° Southwest 337 388 11,000 -1,380 Descending Cleveland Center
07:04AM 42.4536 -82.6967 244° Southwest 339 390 10,200 -1,200 Descending Cleveland Center
07:05AM 42.4417 -82.7386 249° West 288 331 9,800 -1,140 Descending Cleveland Center
07:05AM 42.4369 -82.7944 263° West 279 321 9,100 -1,380 Descending Cleveland Center
07:06AM 42.4322 -82.8419 262° West 264 304 8,400 -1,620 Descending Cleveland Center
07:06AM 42.4294 -82.8944 266° West 270 311 7,500 -1,620 Descending Cleveland Center
07:07AM 42.4208 -82.9394 255° West 262 302 6,800 -1,200 Descending Cleveland Center
07:07AM 42.4119 -82.9872 256° West 262 302 6,300 -720 Descending Cleveland Center
07:08AM 42.3989 -83.0383 251° West 257 296 6,000 -840 Descending Cleveland Center
07:08AM 42.3850 -83.0953 252° West 257 296 5,500 -900 Descending Cleveland Center
07:09AM 42.3756 -83.1256 247° West 251 289 5,100 -1,200 Descending Cleveland Center
07:09AM 42.3633 -83.1781 253° West 242 278 4,300 -1,440 Descending Cleveland Center
07:10AM 42.3486 -83.2036 232° Southwest 198 228 3,700 -1,200 Descending Cleveland Center
07:10AM 42.3339 -83.2369 239° Southwest 196 226 3,100 -720 Descending Cleveland Center
07:11AM 42.3169 -83.2614 227° Southwest 172 198 2,900 -720 Descending Cleveland Center
07:11AM 42.2978 -83.2767 211° Southwest 180 207 2,400 -1,020 Descending Cleveland Center
07:12AM 42.2792 -83.2900 208° Southwest 163 188 2,000 -840 Descending Cleveland Center
07:12AM 42.2611 -83.3042 210° Southwest 152 175 1,600 -720 Descending Cleveland Center
07:13AM 42.2481 -83.3139 209° Southwest 124 143 1,300 -600 Descending Cleveland Center
07:14AM 42.2308 -83.3261 208° Southwest 127 146 1,000 -480 Descending Cleveland Center
07:16AM 42.2124 -83.3534 236° Southwest  Level Estimated
07:23AM 42.2124 -83.3534 236° Southwest  Level Estimated